sensor_id;sensor_type;location;lat;lon;timestamp;P1;durP1;ratioP1;P2;durP2;ratioP2
6223;SDS011;3145;42.726;23.342;2022-12-18T00:01:49;14.57;;;12.17;;
6223;SDS011;3145;42.726;23.342;2022-12-18T00:04:18;17.23;;;12.07;;
6223;SDS011;3145;42.726;23.342;2022-12-18T00:06:48;14.17;;;12.10;;
6223;SDS011;3145;42.726;23.342;2022-12-18T00:09:15;13.33;;;11.77;;
6223;SDS011;3145;42.726;23.342;2022-12-18T00:11:42;17.27;;;12.17;;
6223;SDS011;3145;42.726;23.342;2022-12-18T00:14:10;14.13;;;12.53;;
6223;SDS011;3145;42.726;23.342;2022-12-18T00:16:38;15.27;;;12.33;;
6223;SDS011;3145;42.726;23.342;2022-12-18T00:19:05;14.37;;;12.87;;
6223;SDS011;3145;42.726;23.342;2022-12-18T00:21:33;16.10;;;12.17;;
6223;SDS011;3145;42.726;23.342;2022-12-18T00:23:59;13.83;;;12.27;;
6223;SDS011;3145;42.726;23.342;2022-12-18T00:26:27;15.03;;;12.80;;
6223;SDS011;3145;42.726;23.342;2022-12-18T00:28:58;15.37;;;12.67;;
6223;SDS011;3145;42.726;23.342;2022-12-18T00:31:26;16.40;;;12.77;;
6223;SDS011;3145;42.726;23.342;2022-12-18T00:33:53;14.87;;;12.90;;
6223;SDS011;3145;42.726;23.342;2022-12-18T00:36:21;18.63;;;13.63;;
6223;SDS011;3145;42.726;23.342;2022-12-18T00:38:50;14.40;;;12.93;;
6223;SDS011;3145;42.726;23.342;2022-12-18T00:41:17;16.67;;;13.63;;
6223;SDS011;3145;42.726;23.342;2022-12-18T00:44:05;15.30;;;12.83;;
6223;SDS011;3145;42.726;23.342;2022-12-18T00:46:33;17.20;;;13.47;;
6223;SDS011;3145;42.726;23.342;2022-12-18T00:48:59;15.80;;;13.33;;
6223;SDS011;3145;42.726;23.342;2022-12-18T00:51:26;17.87;;;13.27;;
6223;SDS011;3145;42.726;23.342;2022-12-18T00:53:53;17.97;;;14.23;;
6223;SDS011;3145;42.726;23.342;2022-12-18T00:56:20;18.67;;;14.07;;
6223;SDS011;3145;42.726;23.342;2022-12-18T00:58:47;18.23;;;13.97;;
6223;SDS011;3145;42.726;23.342;2022-12-18T01:01:13;14.67;;;13.07;;
6223;SDS011;3145;42.726;23.342;2022-12-18T01:03:42;15.03;;;13.37;;
6223;SDS011;3145;42.726;23.342;2022-12-18T01:06:10;15.73;;;13.27;;
6223;SDS011;3145;42.726;23.342;2022-12-18T01:08:38;15.87;;;13.93;;
6223;SDS011;3145;42.726;23.342;2022-12-18T01:11:07;14.87;;;13.17;;
6223;SDS011;3145;42.726;23.342;2022-12-18T01:13:35;15.73;;;12.97;;
6223;SDS011;3145;42.726;23.342;2022-12-18T01:16:01;16.97;;;14.03;;
6223;SDS011;3145;42.726;23.342;2022-12-18T01:18:28;18.47;;;13.57;;
6223;SDS011;3145;42.726;23.342;2022-12-18T01:20:56;18.80;;;13.77;;
6223;SDS011;3145;42.726;23.342;2022-12-18T01:23:27;16.17;;;14.00;;
6223;SDS011;3145;42.726;23.342;2022-12-18T01:25:54;17.37;;;14.10;;
6223;SDS011;3145;42.726;23.342;2022-12-18T01:28:20;19.73;;;14.10;;
6223;SDS011;3145;42.726;23.342;2022-12-18T01:30:47;18.33;;;14.43;;
6223;SDS011;3145;42.726;23.342;2022-12-18T01:33:14;18.57;;;14.90;;
6223;SDS011;3145;42.726;23.342;2022-12-18T01:35:41;17.63;;;13.50;;
6223;SDS011;3145;42.726;23.342;2022-12-18T01:38:09;20.80;;;15.13;;
6223;SDS011;3145;42.726;23.342;2022-12-18T01:40:36;15.03;;;13.30;;
6223;SDS011;3145;42.726;23.342;2022-12-18T01:43:03;15.27;;;13.67;;
6223;SDS011;3145;42.726;23.342;2022-12-18T01:45:30;18.33;;;13.53;;
6223;SDS011;3145;42.726;23.342;2022-12-18T01:47:58;16.73;;;14.07;;
6223;SDS011;3145;42.726;23.342;2022-12-18T01:50:29;18.00;;;14.63;;
6223;SDS011;3145;42.726;23.342;2022-12-18T01:52:59;18.43;;;15.33;;
6223;SDS011;3145;42.726;23.342;2022-12-18T01:55:32;16.10;;;13.63;;
6223;SDS011;3145;42.726;23.342;2022-12-18T01:58:03;21.20;;;15.27;;
6223;SDS011;3145;42.726;23.342;2022-12-18T02:00:30;19.50;;;14.87;;
6223;SDS011;3145;42.726;23.342;2022-12-18T02:02:57;19.03;;;14.90;;
6223;SDS011;3145;42.726;23.342;2022-12-18T02:05:26;18.77;;;14.53;;
6223;SDS011;3145;42.726;23.342;2022-12-18T02:08:01;19.63;;;14.70;;
6223;SDS011;3145;42.726;23.342;2022-12-18T02:10:36;18.70;;;15.27;;
6223;SDS011;3145;42.726;23.342;2022-12-18T02:13:12;17.40;;;13.93;;
6223;SDS011;3145;42.726;23.342;2022-12-18T02:15:48;13.67;;;12.37;;
6223;SDS011;3145;42.726;23.342;2022-12-18T02:18:21;19.20;;;15.07;;
6223;SDS011;3145;42.726;23.342;2022-12-18T02:20:52;15.83;;;13.83;;
6223;SDS011;3145;42.726;23.342;2022-12-18T02:23:24;15.97;;;13.13;;
6223;SDS011;3145;42.726;23.342;2022-12-18T02:26:14;14.70;;;12.53;;
6223;SDS011;3145;42.726;23.342;2022-12-18T02:28:45;19.00;;;14.53;;
6223;SDS011;3145;42.726;23.342;2022-12-18T02:31:15;15.00;;;12.80;;
6223;SDS011;3145;42.726;23.342;2022-12-18T02:33:48;17.33;;;13.53;;
6223;SDS011;3145;42.726;23.342;2022-12-18T02:36:17;16.27;;;13.37;;
6223;SDS011;3145;42.726;23.342;2022-12-18T02:38:48;15.83;;;12.87;;
6223;SDS011;3145;42.726;23.342;2022-12-18T02:41:17;16.47;;;13.53;;
6223;SDS011;3145;42.726;23.342;2022-12-18T02:43:48;18.60;;;14.80;;
6223;SDS011;3145;42.726;23.342;2022-12-18T02:46:29;16.57;;;12.73;;
6223;SDS011;3145;42.726;23.342;2022-12-18T02:49:01;18.20;;;14.20;;
6223;SDS011;3145;42.726;23.342;2022-12-18T02:51:39;19.90;;;13.27;;
6223;SDS011;3145;42.726;23.342;2022-12-18T02:54:16;13.80;;;12.40;;
6223;SDS011;3145;42.726;23.342;2022-12-18T02:56:50;16.53;;;12.90;;
6223;SDS011;3145;42.726;23.342;2022-12-18T02:59:22;14.30;;;12.83;;
6223;SDS011;3145;42.726;23.342;2022-12-18T03:01:57;13.33;;;11.97;;
6223;SDS011;3145;42.726;23.342;2022-12-18T03:04:29;15.63;;;13.40;;
6223;SDS011;3145;42.726;23.342;2022-12-18T03:07:05;15.57;;;13.90;;
6223;SDS011;3145;42.726;23.342;2022-12-18T03:09:35;15.87;;;13.97;;
6223;SDS011;3145;42.726;23.342;2022-12-18T03:12:06;18.60;;;14.80;;
6223;SDS011;3145;42.726;23.342;2022-12-18T03:14:49;17.23;;;14.43;;
6223;SDS011;3145;42.726;23.342;2022-12-18T03:17:18;21.00;;;14.57;;
6223;SDS011;3145;42.726;23.342;2022-12-18T03:19:49;16.90;;;13.70;;
6223;SDS011;3145;42.726;23.342;2022-12-18T03:22:17;14.43;;;12.33;;
6223;SDS011;3145;42.726;23.342;2022-12-18T03:24:46;17.63;;;13.47;;
6223;SDS011;3145;42.726;23.342;2022-12-18T03:27:17;18.73;;;14.33;;
6223;SDS011;3145;42.726;23.342;2022-12-18T03:29:46;18.63;;;13.97;;
6223;SDS011;3145;42.726;23.342;2022-12-18T03:32:17;17.93;;;13.03;;
6223;SDS011;3145;42.726;23.342;2022-12-18T03:34:50;15.47;;;13.20;;
6223;SDS011;3145;42.726;23.342;2022-12-18T03:37:19;18.10;;;14.33;;
6223;SDS011;3145;42.726;23.342;2022-12-18T03:39:46;15.17;;;13.27;;
6223;SDS011;3145;42.726;23.342;2022-12-18T03:42:15;16.20;;;12.57;;
6223;SDS011;3145;42.726;23.342;2022-12-18T03:44:52;18.73;;;13.67;;
6223;SDS011;3145;42.726;23.342;2022-12-18T03:47:25;21.40;;;15.80;;
6223;SDS011;3145;42.726;23.342;2022-12-18T03:49:56;16.17;;;13.97;;
6223;SDS011;3145;42.726;23.342;2022-12-18T03:52:30;18.17;;;13.90;;
6223;SDS011;3145;42.726;23.342;2022-12-18T03:55:02;19.27;;;14.70;;
6223;SDS011;3145;42.726;23.342;2022-12-18T03:57:32;22.13;;;15.53;;
6223;SDS011;3145;42.726;23.342;2022-12-18T04:00:00;15.63;;;13.77;;
6223;SDS011;3145;42.726;23.342;2022-12-18T04:02:31;18.70;;;14.77;;
6223;SDS011;3145;42.726;23.342;2022-12-18T04:05:02;19.90;;;14.20;;
6223;SDS011;3145;42.726;23.342;2022-12-18T04:07:31;16.03;;;14.23;;
6223;SDS011;3145;42.726;23.342;2022-12-18T04:09:58;21.03;;;15.53;;
6223;SDS011;3145;42.726;23.342;2022-12-18T04:12:28;19.43;;;15.40;;
6223;SDS011;3145;42.726;23.342;2022-12-18T04:14:57;19.73;;;15.13;;
6223;SDS011;3145;42.726;23.342;2022-12-18T04:17:24;21.27;;;16.03;;
6223;SDS011;3145;42.726;23.342;2022-12-18T04:19:51;19.03;;;15.03;;
6223;SDS011;3145;42.726;23.342;2022-12-18T04:22:17;19.67;;;15.50;;
6223;SDS011;3145;42.726;23.342;2022-12-18T04:24:44;23.97;;;16.63;;
6223;SDS011;3145;42.726;23.342;2022-12-18T04:27:11;21.70;;;16.70;;
6223;SDS011;3145;42.726;23.342;2022-12-18T04:29:37;24.60;;;17.27;;
6223;SDS011;3145;42.726;23.342;2022-12-18T04:32:05;21.00;;;16.07;;
6223;SDS011;3145;42.726;23.342;2022-12-18T04:34:33;21.40;;;15.87;;
6223;SDS011;3145;42.726;23.342;2022-12-18T04:36:59;22.03;;;16.63;;
6223;SDS011;3145;42.726;23.342;2022-12-18T04:39:26;23.90;;;17.77;;
6223;SDS011;3145;42.726;23.342;2022-12-18T04:41:53;21.80;;;16.37;;
6223;SDS011;3145;42.726;23.342;2022-12-18T04:44:19;24.80;;;17.67;;
6223;SDS011;3145;42.726;23.342;2022-12-18T04:46:46;24.80;;;17.57;;
6223;SDS011;3145;42.726;23.342;2022-12-18T04:49:14;26.07;;;17.13;;
6223;SDS011;3145;42.726;23.342;2022-12-18T04:51:41;25.10;;;16.70;;
6223;SDS011;3145;42.726;23.342;2022-12-18T04:54:08;25.40;;;18.10;;
6223;SDS011;3145;42.726;23.342;2022-12-18T04:56:34;25.50;;;17.57;;
6223;SDS011;3145;42.726;23.342;2022-12-18T04:59:01;25.37;;;16.47;;
6223;SDS011;3145;42.726;23.342;2022-12-18T05:01:28;22.03;;;16.50;;
6223;SDS011;3145;42.726;23.342;2022-12-18T05:03:55;23.03;;;16.87;;
6223;SDS011;3145;42.726;23.342;2022-12-18T05:06:23;26.80;;;17.97;;
6223;SDS011;3145;42.726;23.342;2022-12-18T05:08:49;24.87;;;17.30;;
6223;SDS011;3145;42.726;23.342;2022-12-18T05:11:16;27.53;;;18.60;;
6223;SDS011;3145;42.726;23.342;2022-12-18T05:13:43;25.23;;;17.37;;
6223;SDS011;3145;42.726;23.342;2022-12-18T05:16:11;24.43;;;17.17;;
6223;SDS011;3145;42.726;23.342;2022-12-18T05:18:38;25.37;;;18.60;;
6223;SDS011;3145;42.726;23.342;2022-12-18T05:21:05;25.13;;;18.53;;
6223;SDS011;3145;42.726;23.342;2022-12-18T05:23:33;25.77;;;17.83;;
6223;SDS011;3145;42.726;23.342;2022-12-18T05:26:03;23.87;;;18.60;;
6223;SDS011;3145;42.726;23.342;2022-12-18T05:28:31;26.00;;;17.80;;
6223;SDS011;3145;42.726;23.342;2022-12-18T05:30:59;29.30;;;17.60;;
6223;SDS011;3145;42.726;23.342;2022-12-18T05:33:29;27.50;;;19.20;;
6223;SDS011;3145;42.726;23.342;2022-12-18T05:35:57;28.47;;;18.40;;
6223;SDS011;3145;42.726;23.342;2022-12-18T05:38:25;26.27;;;17.77;;
6223;SDS011;3145;42.726;23.342;2022-12-18T05:40:55;31.80;;;20.60;;
6223;SDS011;3145;42.726;23.342;2022-12-18T05:43:24;29.83;;;18.70;;
6223;SDS011;3145;42.726;23.342;2022-12-18T05:45:52;27.43;;;17.20;;
6223;SDS011;3145;42.726;23.342;2022-12-18T05:48:20;31.77;;;19.47;;
6223;SDS011;3145;42.726;23.342;2022-12-18T05:50:48;31.17;;;20.03;;
6223;SDS011;3145;42.726;23.342;2022-12-18T05:53:16;29.73;;;19.87;;
6223;SDS011;3145;42.726;23.342;2022-12-18T05:55:44;27.63;;;19.23;;
6223;SDS011;3145;42.726;23.342;2022-12-18T05:58:13;28.20;;;19.23;;
6223;SDS011;3145;42.726;23.342;2022-12-18T06:00:41;29.13;;;19.70;;
6223;SDS011;3145;42.726;23.342;2022-12-18T06:03:09;29.87;;;18.70;;
6223;SDS011;3145;42.726;23.342;2022-12-18T06:05:36;30.53;;;19.80;;
6223;SDS011;3145;42.726;23.342;2022-12-18T06:08:04;26.37;;;19.50;;
6223;SDS011;3145;42.726;23.342;2022-12-18T06:10:31;30.60;;;21.07;;
6223;SDS011;3145;42.726;23.342;2022-12-18T06:12:58;38.67;;;22.43;;
6223;SDS011;3145;42.726;23.342;2022-12-18T06:15:26;31.80;;;21.73;;
6223;SDS011;3145;42.726;23.342;2022-12-18T06:17:53;30.53;;;20.77;;
6223;SDS011;3145;42.726;23.342;2022-12-18T06:20:20;32.10;;;20.70;;
6223;SDS011;3145;42.726;23.342;2022-12-18T06:22:47;28.23;;;19.10;;
6223;SDS011;3145;42.726;23.342;2022-12-18T06:25:14;27.97;;;18.93;;
6223;SDS011;3145;42.726;23.342;2022-12-18T06:27:41;29.57;;;19.87;;
6223;SDS011;3145;42.726;23.342;2022-12-18T06:30:08;31.30;;;20.30;;
6223;SDS011;3145;42.726;23.342;2022-12-18T06:32:37;30.20;;;19.77;;
6223;SDS011;3145;42.726;23.342;2022-12-18T06:35:04;26.43;;;19.73;;
6223;SDS011;3145;42.726;23.342;2022-12-18T06:37:31;30.27;;;19.57;;
6223;SDS011;3145;42.726;23.342;2022-12-18T06:39:58;27.50;;;19.43;;
6223;SDS011;3145;42.726;23.342;2022-12-18T06:42:26;29.17;;;19.70;;
6223;SDS011;3145;42.726;23.342;2022-12-18T06:44:52;26.10;;;19.67;;
6223;SDS011;3145;42.726;23.342;2022-12-18T06:47:19;32.90;;;20.73;;
6223;SDS011;3145;42.726;23.342;2022-12-18T06:49:47;31.07;;;21.07;;
6223;SDS011;3145;42.726;23.342;2022-12-18T06:52:14;28.13;;;20.13;;
6223;SDS011;3145;42.726;23.342;2022-12-18T06:54:41;30.60;;;21.13;;
6223;SDS011;3145;42.726;23.342;2022-12-18T06:57:08;29.40;;;21.90;;
6223;SDS011;3145;42.726;23.342;2022-12-18T06:59:34;32.40;;;21.07;;
6223;SDS011;3145;42.726;23.342;2022-12-18T07:02:01;34.50;;;21.37;;
6223;SDS011;3145;42.726;23.342;2022-12-18T07:04:28;28.50;;;20.70;;
6223;SDS011;3145;42.726;23.342;2022-12-18T07:06:56;29.33;;;21.07;;
6223;SDS011;3145;42.726;23.342;2022-12-18T07:09:23;28.33;;;18.53;;
6223;SDS011;3145;42.726;23.342;2022-12-18T07:11:50;30.23;;;19.37;;
6223;SDS011;3145;42.726;23.342;2022-12-18T07:14:17;29.60;;;20.03;;
6223;SDS011;3145;42.726;23.342;2022-12-18T07:16:43;32.03;;;21.40;;
6223;SDS011;3145;42.726;23.342;2022-12-18T07:19:10;28.30;;;18.93;;
6223;SDS011;3145;42.726;23.342;2022-12-18T07:21:37;28.27;;;19.20;;
6223;SDS011;3145;42.726;23.342;2022-12-18T07:24:05;28.60;;;19.33;;
6223;SDS011;3145;42.726;23.342;2022-12-18T07:26:32;29.87;;;20.20;;
6223;SDS011;3145;42.726;23.342;2022-12-18T07:28:59;30.37;;;20.30;;
6223;SDS011;3145;42.726;23.342;2022-12-18T07:31:26;26.30;;;18.63;;
6223;SDS011;3145;42.726;23.342;2022-12-18T07:33:53;29.00;;;19.37;;
6223;SDS011;3145;42.726;23.342;2022-12-18T07:36:20;35.83;;;21.87;;
6223;SDS011;3145;42.726;23.342;2022-12-18T07:38:47;26.63;;;19.20;;
6223;SDS011;3145;42.726;23.342;2022-12-18T07:41:15;32.97;;;21.10;;
6223;SDS011;3145;42.726;23.342;2022-12-18T07:43:44;27.73;;;19.57;;
6223;SDS011;3145;42.726;23.342;2022-12-18T07:46:11;38.93;;;22.53;;
6223;SDS011;3145;42.726;23.342;2022-12-18T07:48:39;30.53;;;20.63;;
6223;SDS011;3145;42.726;23.342;2022-12-18T07:51:06;29.77;;;20.00;;
6223;SDS011;3145;42.726;23.342;2022-12-18T07:53:41;38.17;;;21.80;;
6223;SDS011;3145;42.726;23.342;2022-12-18T07:56:09;31.77;;;20.23;;
6223;SDS011;3145;42.726;23.342;2022-12-18T07:58:38;33.20;;;20.93;;
6223;SDS011;3145;42.726;23.342;2022-12-18T08:01:06;33.00;;;21.03;;
6223;SDS011;3145;42.726;23.342;2022-12-18T08:03:34;35.17;;;22.67;;
6223;SDS011;3145;42.726;23.342;2022-12-18T08:06:02;33.03;;;21.53;;
6223;SDS011;3145;42.726;23.342;2022-12-18T08:08:29;33.33;;;20.97;;
6223;SDS011;3145;42.726;23.342;2022-12-18T08:10:57;30.33;;;21.20;;
6223;SDS011;3145;42.726;23.342;2022-12-18T08:13:24;30.03;;;21.33;;
6223;SDS011;3145;42.726;23.342;2022-12-18T08:15:59;31.17;;;21.50;;
6223;SDS011;3145;42.726;23.342;2022-12-18T08:18:27;34.53;;;22.63;;
6223;SDS011;3145;42.726;23.342;2022-12-18T08:20:55;35.40;;;22.83;;
6223;SDS011;3145;42.726;23.342;2022-12-18T08:23:22;38.40;;;23.70;;
6223;SDS011;3145;42.726;23.342;2022-12-18T08:25:48;33.77;;;21.77;;
6223;SDS011;3145;42.726;23.342;2022-12-18T08:28:16;36.00;;;22.23;;
6223;SDS011;3145;42.726;23.342;2022-12-18T08:30:43;36.33;;;21.97;;
6223;SDS011;3145;42.726;23.342;2022-12-18T08:33:11;33.57;;;22.60;;
6223;SDS011;3145;42.726;23.342;2022-12-18T08:35:38;33.33;;;20.63;;
6223;SDS011;3145;42.726;23.342;2022-12-18T08:38:04;29.87;;;20.90;;
6223;SDS011;3145;42.726;23.342;2022-12-18T08:40:31;27.97;;;20.17;;
6223;SDS011;3145;42.726;23.342;2022-12-18T08:42:58;30.90;;;19.97;;
6223;SDS011;3145;42.726;23.342;2022-12-18T08:45:42;28.43;;;19.57;;
6223;SDS011;3145;42.726;23.342;2022-12-18T08:48:10;31.67;;;20.53;;
6223;SDS011;3145;42.726;23.342;2022-12-18T08:50:37;32.77;;;22.50;;
6223;SDS011;3145;42.726;23.342;2022-12-18T08:53:04;34.27;;;22.53;;
6223;SDS011;3145;42.726;23.342;2022-12-18T08:55:30;33.10;;;21.07;;
6223;SDS011;3145;42.726;23.342;2022-12-18T08:57:57;32.33;;;20.20;;
6223;SDS011;3145;42.726;23.342;2022-12-18T09:00:24;28.67;;;20.00;;
6223;SDS011;3145;42.726;23.342;2022-12-18T09:02:51;32.07;;;20.53;;
6223;SDS011;3145;42.726;23.342;2022-12-18T09:05:19;32.23;;;20.83;;
6223;SDS011;3145;42.726;23.342;2022-12-18T09:07:45;35.57;;;20.90;;
6223;SDS011;3145;42.726;23.342;2022-12-18T09:10:12;31.47;;;21.50;;
6223;SDS011;3145;42.726;23.342;2022-12-18T09:12:39;33.37;;;21.33;;
6223;SDS011;3145;42.726;23.342;2022-12-18T09:15:06;38.40;;;20.33;;
6223;SDS011;3145;42.726;23.342;2022-12-18T09:17:33;32.43;;;20.87;;
6223;SDS011;3145;42.726;23.342;2022-12-18T09:19:59;32.60;;;21.57;;
6223;SDS011;3145;42.726;23.342;2022-12-18T09:22:27;38.00;;;23.77;;
6223;SDS011;3145;42.726;23.342;2022-12-18T09:24:54;36.33;;;22.00;;
6223;SDS011;3145;42.726;23.342;2022-12-18T09:27:21;34.20;;;22.03;;
6223;SDS011;3145;42.726;23.342;2022-12-18T09:29:47;46.27;;;25.07;;
6223;SDS011;3145;42.726;23.342;2022-12-18T09:32:14;38.50;;;23.33;;
6223;SDS011;3145;42.726;23.342;2022-12-18T09:34:41;33.40;;;20.47;;
6223;SDS011;3145;42.726;23.342;2022-12-18T09:37:07;27.93;;;19.30;;
6223;SDS011;3145;42.726;23.342;2022-12-18T09:39:36;35.40;;;21.53;;
6223;SDS011;3145;42.726;23.342;2022-12-18T09:42:02;36.77;;;21.83;;
6223;SDS011;3145;42.726;23.342;2022-12-18T09:44:32;34.23;;;21.43;;
6223;SDS011;3145;42.726;23.342;2022-12-18T09:47:06;37.83;;;22.80;;
6223;SDS011;3145;42.726;23.342;2022-12-18T09:49:38;39.93;;;22.67;;
6223;SDS011;3145;42.726;23.342;2022-12-18T09:52:09;29.80;;;19.77;;
6223;SDS011;3145;42.726;23.342;2022-12-18T09:54:43;32.13;;;20.57;;
6223;SDS011;3145;42.726;23.342;2022-12-18T09:57:13;34.83;;;22.07;;
6223;SDS011;3145;42.726;23.342;2022-12-18T09:59:41;26.30;;;18.20;;
6223;SDS011;3145;42.726;23.342;2022-12-18T10:02:14;37.80;;;21.00;;
6223;SDS011;3145;42.726;23.342;2022-12-18T10:04:43;30.07;;;20.63;;
6223;SDS011;3145;42.726;23.342;2022-12-18T10:07:14;33.13;;;19.17;;
6223;SDS011;3145;42.726;23.342;2022-12-18T10:09:51;34.33;;;20.27;;
6223;SDS011;3145;42.726;23.342;2022-12-18T10:12:26;27.83;;;19.13;;
6223;SDS011;3145;42.726;23.342;2022-12-18T10:15:06;31.83;;;21.17;;
6223;SDS011;3145;42.726;23.342;2022-12-18T10:17:40;29.93;;;20.00;;
6223;SDS011;3145;42.726;23.342;2022-12-18T10:20:13;34.77;;;19.90;;
6223;SDS011;3145;42.726;23.342;2022-12-18T10:22:44;31.90;;;20.07;;
6223;SDS011;3145;42.726;23.342;2022-12-18T10:25:21;26.07;;;18.03;;
6223;SDS011;3145;42.726;23.342;2022-12-18T10:27:51;30.67;;;19.03;;
6223;SDS011;3145;42.726;23.342;2022-12-18T10:30:21;30.80;;;19.33;;
6223;SDS011;3145;42.726;23.342;2022-12-18T10:32:49;26.73;;;17.50;;
6223;SDS011;3145;42.726;23.342;2022-12-18T10:35:17;28.40;;;18.07;;
6223;SDS011;3145;42.726;23.342;2022-12-18T10:40:36;30.30;;;18.90;;
6223;SDS011;3145;42.726;23.342;2022-12-18T10:43:15;25.43;;;18.17;;
6223;SDS011;3145;42.726;23.342;2022-12-18T10:45:57;32.60;;;20.10;;
6223;SDS011;3145;42.726;23.342;2022-12-18T10:48:52;28.47;;;18.83;;
6223;SDS011;3145;42.726;23.342;2022-12-18T10:51:22;31.40;;;19.10;;
6223;SDS011;3145;42.726;23.342;2022-12-18T10:53:51;32.73;;;19.33;;
6223;SDS011;3145;42.726;23.342;2022-12-18T10:56:22;29.97;;;19.27;;
6223;SDS011;3145;42.726;23.342;2022-12-18T10:58:55;28.47;;;19.53;;
6223;SDS011;3145;42.726;23.342;2022-12-18T11:01:23;30.27;;;18.47;;
6223;SDS011;3145;42.726;23.342;2022-12-18T11:03:58;25.63;;;18.23;;
6223;SDS011;3145;42.726;23.342;2022-12-18T11:06:26;28.43;;;18.17;;
6223;SDS011;3145;42.726;23.342;2022-12-18T11:08:57;30.40;;;18.97;;
6223;SDS011;3145;42.726;23.342;2022-12-18T11:11:27;30.67;;;19.17;;
6223;SDS011;3145;42.726;23.342;2022-12-18T11:13:57;25.83;;;18.30;;
6223;SDS011;3145;42.726;23.342;2022-12-18T11:16:27;28.50;;;19.23;;
6223;SDS011;3145;42.726;23.342;2022-12-18T11:19:07;28.20;;;17.87;;
6223;SDS011;3145;42.726;23.342;2022-12-18T11:21:46;25.80;;;18.57;;
6223;SDS011;3145;42.726;23.342;2022-12-18T11:24:17;25.83;;;18.27;;
6223;SDS011;3145;42.726;23.342;2022-12-18T11:26:48;31.30;;;19.80;;
6223;SDS011;3145;42.726;23.342;2022-12-18T11:29:16;27.33;;;18.77;;
6223;SDS011;3145;42.726;23.342;2022-12-18T11:31:48;31.23;;;19.70;;
6223;SDS011;3145;42.726;23.342;2022-12-18T11:34:16;36.03;;;21.37;;
6223;SDS011;3145;42.726;23.342;2022-12-18T11:36:51;34.53;;;20.93;;
6223;SDS011;3145;42.726;23.342;2022-12-18T11:39:19;31.13;;;17.93;;
6223;SDS011;3145;42.726;23.342;2022-12-18T11:41:52;28.43;;;19.27;;
6223;SDS011;3145;42.726;23.342;2022-12-18T11:44:45;29.00;;;18.70;;
6223;SDS011;3145;42.726;23.342;2022-12-18T11:47:18;30.93;;;18.93;;
6223;SDS011;3145;42.726;23.342;2022-12-18T11:49:51;27.40;;;19.10;;
6223;SDS011;3145;42.726;23.342;2022-12-18T11:52:21;25.27;;;18.37;;
6223;SDS011;3145;42.726;23.342;2022-12-18T11:54:51;25.03;;;16.90;;
6223;SDS011;3145;42.726;23.342;2022-12-18T11:57:23;30.20;;;18.77;;
6223;SDS011;3145;42.726;23.342;2022-12-18T12:00:03;24.43;;;17.47;;
6223;SDS011;3145;42.726;23.342;2022-12-18T12:02:41;27.90;;;18.40;;
6223;SDS011;3145;42.726;23.342;2022-12-18T12:05:25;27.20;;;17.47;;
6223;SDS011;3145;42.726;23.342;2022-12-18T12:08:05;35.57;;;18.37;;
6223;SDS011;3145;42.726;23.342;2022-12-18T12:10:41;27.27;;;18.73;;
6223;SDS011;3145;42.726;23.342;2022-12-18T12:13:26;28.80;;;19.10;;
6223;SDS011;3145;42.726;23.342;2022-12-18T12:16:06;41.20;;;25.67;;
6223;SDS011;3145;42.726;23.342;2022-12-18T12:18:45;32.13;;;22.03;;
6223;SDS011;3145;42.726;23.342;2022-12-18T12:21:28;33.00;;;20.67;;
6223;SDS011;3145;42.726;23.342;2022-12-18T12:24:09;31.97;;;19.80;;
6223;SDS011;3145;42.726;23.342;2022-12-18T12:26:49;27.37;;;18.97;;
6223;SDS011;3145;42.726;23.342;2022-12-18T12:29:27;35.33;;;21.13;;
6223;SDS011;3145;42.726;23.342;2022-12-18T12:32:07;33.63;;;19.47;;
6223;SDS011;3145;42.726;23.342;2022-12-18T12:34:46;30.77;;;18.23;;
6223;SDS011;3145;42.726;23.342;2022-12-18T12:37:23;30.50;;;18.97;;
6223;SDS011;3145;42.726;23.342;2022-12-18T12:39:56;32.13;;;19.33;;
6223;SDS011;3145;42.726;23.342;2022-12-18T12:42:25;31.10;;;19.93;;
6223;SDS011;3145;42.726;23.342;2022-12-18T12:45:16;31.50;;;20.10;;
6223;SDS011;3145;42.726;23.342;2022-12-18T12:47:46;28.70;;;18.40;;
6223;SDS011;3145;42.726;23.342;2022-12-18T12:50:16;28.17;;;19.80;;
6223;SDS011;3145;42.726;23.342;2022-12-18T12:52:46;29.00;;;19.63;;
6223;SDS011;3145;42.726;23.342;2022-12-18T12:55:17;29.10;;;19.43;;
6223;SDS011;3145;42.726;23.342;2022-12-18T12:57:48;31.43;;;18.23;;
6223;SDS011;3145;42.726;23.342;2022-12-18T13:00:24;30.77;;;18.93;;
6223;SDS011;3145;42.726;23.342;2022-12-18T13:02:56;30.47;;;19.00;;
6223;SDS011;3145;42.726;23.342;2022-12-18T13:05:34;30.87;;;19.67;;
6223;SDS011;3145;42.726;23.342;2022-12-18T13:08:07;31.57;;;18.60;;
6223;SDS011;3145;42.726;23.342;2022-12-18T13:10:36;33.40;;;20.27;;
6223;SDS011;3145;42.726;23.342;2022-12-18T13:13:04;36.03;;;20.40;;
6223;SDS011;3145;42.726;23.342;2022-12-18T13:15:38;34.63;;;21.23;;
6223;SDS011;3145;42.726;23.342;2022-12-18T13:18:12;37.47;;;23.13;;
6223;SDS011;3145;42.726;23.342;2022-12-18T13:20:48;34.13;;;20.57;;
6223;SDS011;3145;42.726;23.342;2022-12-18T13:23:25;28.70;;;19.17;;
6223;SDS011;3145;42.726;23.342;2022-12-18T13:25:54;35.03;;;24.27;;
6223;SDS011;3145;42.726;23.342;2022-12-18T13:28:23;27.80;;;18.17;;
6223;SDS011;3145;42.726;23.342;2022-12-18T13:31:57;30.40;;;18.80;;
6223;SDS011;3145;42.726;23.342;2022-12-18T13:34:36;29.90;;;19.23;;
6223;SDS011;3145;42.726;23.342;2022-12-18T13:43:15;34.97;;;22.17;;
6223;SDS011;3145;42.726;23.342;2022-12-18T13:45:50;29.87;;;20.00;;
6223;SDS011;3145;42.726;23.342;2022-12-18T13:48:26;34.50;;;22.20;;
6223;SDS011;3145;42.726;23.342;2022-12-18T13:50:58;31.33;;;18.87;;
6223;SDS011;3145;42.726;23.342;2022-12-18T13:53:29;31.13;;;20.37;;
6223;SDS011;3145;42.726;23.342;2022-12-18T13:56:00;32.67;;;20.43;;
6223;SDS011;3145;42.726;23.342;2022-12-18T13:58:28;36.03;;;20.37;;
6223;SDS011;3145;42.726;23.342;2022-12-18T14:00:55;31.00;;;20.47;;
6223;SDS011;3145;42.726;23.342;2022-12-18T14:03:24;28.50;;;18.33;;
6223;SDS011;3145;42.726;23.342;2022-12-18T14:05:54;26.27;;;18.53;;
6223;SDS011;3145;42.726;23.342;2022-12-18T14:08:24;28.47;;;18.03;;
6223;SDS011;3145;42.726;23.342;2022-12-18T14:10:57;24.73;;;17.50;;
6223;SDS011;3145;42.726;23.342;2022-12-18T14:13:24;24.70;;;16.57;;
6223;SDS011;3145;42.726;23.342;2022-12-18T14:15:54;28.80;;;17.97;;
6223;SDS011;3145;42.726;23.342;2022-12-18T14:18:23;27.23;;;17.73;;
6223;SDS011;3145;42.726;23.342;2022-12-18T14:20:51;24.17;;;17.27;;
6223;SDS011;3145;42.726;23.342;2022-12-18T14:23:29;32.20;;;18.80;;
6223;SDS011;3145;42.726;23.342;2022-12-18T14:25:58;24.00;;;17.73;;
6223;SDS011;3145;42.726;23.342;2022-12-18T14:28:25;26.30;;;17.43;;
6223;SDS011;3145;42.726;23.342;2022-12-18T14:30:52;24.67;;;16.87;;
6223;SDS011;3145;42.726;23.342;2022-12-18T14:33:21;27.30;;;18.13;;
6223;SDS011;3145;42.726;23.342;2022-12-18T14:35:53;26.97;;;18.13;;
6223;SDS011;3145;42.726;23.342;2022-12-18T14:38:23;27.30;;;18.53;;
6223;SDS011;3145;42.726;23.342;2022-12-18T14:40:56;30.50;;;20.77;;
6223;SDS011;3145;42.726;23.342;2022-12-18T14:43:24;26.30;;;18.80;;
6223;SDS011;3145;42.726;23.342;2022-12-18T14:45:52;31.07;;;18.37;;
6223;SDS011;3145;42.726;23.342;2022-12-18T14:48:20;24.20;;;16.63;;
6223;SDS011;3145;42.726;23.342;2022-12-18T14:50:55;23.40;;;15.97;;
6223;SDS011;3145;42.726;23.342;2022-12-18T14:53:28;29.43;;;19.50;;
6223;SDS011;3145;42.726;23.342;2022-12-18T14:56:03;27.50;;;17.33;;
6223;SDS011;3145;42.726;23.342;2022-12-18T14:58:38;24.23;;;16.40;;
6223;SDS011;3145;42.726;23.342;2022-12-18T15:01:05;34.63;;;21.07;;